sensor_id;sensor_type;location;lat;lon;timestamp;temperature;humidity
76102;SHT30;64830;46.910;6.354;2023-02-26T00:00:37;0.43;71.87
76102;SHT30;64830;46.910;6.354;2023-02-26T00:03:03;0.42;71.77
76102;SHT30;64830;46.910;6.354;2023-02-26T00:05:28;0.42;71.96
76102;SHT30;64830;46.910;6.354;2023-02-26T00:07:54;0.42;72.07
76102;SHT30;64830;46.910;6.354;2023-02-26T00:10:19;0.36;72.17
76102;SHT30;64830;46.910;6.354;2023-02-26T00:12:45;0.39;72.38
76102;SHT30;64830;46.910;6.354;2023-02-26T00:15:11;0.42;72.38
76102;SHT30;64830;46.910;6.354;2023-02-26T00:17:57;0.42;72.78
76102;SHT30;64830;46.910;6.354;2023-02-26T00:20:24;0.47;72.55
76102;SHT30;64830;46.910;6.354;2023-02-26T00:22:50;0.45;72.76
76102;SHT30;64830;46.910;6.354;2023-02-26T00:25:16;0.47;73.14
76102;SHT30;64830;46.910;6.354;2023-02-26T00:27:41;0.52;73.26
76102;SHT30;64830;46.910;6.354;2023-02-26T00:30:09;0.54;72.78
76102;SHT30;64830;46.910;6.354;2023-02-26T00:32:35;0.54;72.89
76102;SHT30;64830;46.910;6.354;2023-02-26T00:35:01;0.56;72.81
76102;SHT30;64830;46.910;6.354;2023-02-26T00:40:21;0.57;72.20
76102;SHT30;64830;46.910;6.354;2023-02-26T00:42:51;0.53;72.42
76102;SHT30;64830;46.910;6.354;2023-02-26T00:45:17;0.53;72.53
76102;SHT30;64830;46.910;6.354;2023-02-26T00:48:05;0.52;72.87
76102;SHT30;64830;46.910;6.354;2023-02-26T00:50:44;0.50;72.95
76102;SHT30;64830;46.910;6.354;2023-02-26T00:53:18;0.54;72.89
76102;SHT30;64830;46.910;6.354;2023-02-26T00:55:45;0.53;72.73
76102;SHT30;64830;46.910;6.354;2023-02-26T00:58:10;0.52;72.95
76102;SHT30;64830;46.910;6.354;2023-02-26T01:00:36;0.49;73.03
76102;SHT30;64830;46.910;6.354;2023-02-26T01:03:01;0.52;73.20
76102;SHT30;64830;46.910;6.354;2023-02-26T01:05:28;0.52;73.38
76102;SHT30;64830;46.910;6.354;2023-02-26T01:10:37;0.53;73.18
76102;SHT30;64830;46.910;6.354;2023-02-26T01:13:03;0.54;73.05
76102;SHT30;64830;46.910;6.354;2023-02-26T01:15:29;0.49;72.99
76102;SHT30;64830;46.910;6.354;2023-02-26T01:17:57;0.47;73.12
76102;SHT30;64830;46.910;6.354;2023-02-26T01:20:53;0.47;72.98
76102;SHT30;64830;46.910;6.354;2023-02-26T01:23:24;0.45;73.09
76102;SHT30;64830;46.910;6.354;2023-02-26T01:25:57;0.40;73.15
76102;SHT30;64830;46.910;6.354;2023-02-26T01:28:24;0.35;73.51
76102;SHT30;64830;46.910;6.354;2023-02-26T01:30:52;0.40;73.37
76102;SHT30;64830;46.910;6.354;2023-02-26T01:33:25;0.45;73.74
76102;SHT30;64830;46.910;6.354;2023-02-26T01:36:02;0.45;73.30
76102;SHT30;64830;46.910;6.354;2023-02-26T01:38:34;0.45;73.42
76102;SHT30;64830;46.910;6.354;2023-02-26T01:43:44;0.42;73.20
76102;SHT30;64830;46.910;6.354;2023-02-26T01:48:50;0.30;73.58
76102;SHT30;64830;46.910;6.354;2023-02-26T01:51:17;0.28;73.63
76102;SHT30;64830;46.910;6.354;2023-02-26T01:53:43;0.25;73.66
76102;SHT30;64830;46.910;6.354;2023-02-26T01:56:14;0.23;73.77
76102;SHT30;64830;46.910;6.354;2023-02-26T01:58:42;0.25;73.64
76102;SHT30;64830;46.910;6.354;2023-02-26T02:01:08;0.29;73.61
76102;SHT30;64830;46.910;6.354;2023-02-26T02:03:37;0.30;74.02
76102;SHT30;64830;46.910;6.354;2023-02-26T02:06:06;0.33;73.39
76102;SHT30;64830;46.910;6.354;2023-02-26T02:08:33;0.32;73.41
76102;SHT30;64830;46.910;6.354;2023-02-26T02:11:00;0.30;73.44
76102;SHT30;64830;46.910;6.354;2023-02-26T02:16:51;0.23;73.29
76102;SHT30;64830;46.910;6.354;2023-02-26T02:22:26;0.09;73.03
76102;SHT30;64830;46.910;6.354;2023-02-26T02:30:48;-0.19;73.17
76102;SHT30;64830;46.910;6.354;2023-02-26T02:33:18;-0.23;73.06
76102;SHT30;64830;46.910;6.354;2023-02-26T02:35:51;-0.24;73.27
76102;SHT30;64830;46.910;6.354;2023-02-26T02:38:30;-0.30;72.91
76102;SHT30;64830;46.910;6.354;2023-02-26T02:41:05;-0.29;73.09
76102;SHT30;64830;46.910;6.354;2023-02-26T02:43:33;-0.29;73.35
76102;SHT30;64830;46.910;6.354;2023-02-26T02:46:03;-0.27;73.09
76102;SHT30;64830;46.910;6.354;2023-02-26T02:48:48;-0.27;72.93
76102;SHT30;64830;46.910;6.354;2023-02-26T02:54:19;-0.38;72.86
76102;SHT30;64830;46.910;6.354;2023-02-26T02:56:54;-0.40;72.92
76102;SHT30;64830;46.910;6.354;2023-02-26T03:01:50;-0.41;72.70
76102;SHT30;64830;46.910;6.354;2023-02-26T03:04:18;-0.45;72.66
76102;SHT30;64830;46.910;6.354;2023-02-26T03:06:44;-0.49;72.98
76102;SHT30;64830;46.910;6.354;2023-02-26T03:09:11;-0.45;72.84
76102;SHT30;64830;46.910;6.354;2023-02-26T03:11:38;-0.47;72.73
76102;SHT30;64830;46.910;6.354;2023-02-26T03:14:05;-0.49;72.81
76102;SHT30;64830;46.910;6.354;2023-02-26T03:19:31;-0.49;72.66
76102;SHT30;64830;46.910;6.354;2023-02-26T03:22:14;-0.49;72.69
76102;SHT30;64830;46.910;6.354;2023-02-26T03:24:58;-0.51;72.42
76102;SHT30;64830;46.910;6.354;2023-02-26T03:27:34;-0.51;72.50
76102;SHT30;64830;46.910;6.354;2023-02-26T03:41:24;-0.58;72.24
76102;SHT30;64830;46.910;6.354;2023-02-26T03:44:33;-0.60;72.03
76102;SHT30;64830;46.910;6.354;2023-02-26T03:47:05;-0.57;71.93
76102;SHT30;64830;46.910;6.354;2023-02-26T03:49:37;-0.61;71.74
76102;SHT30;64830;46.910;6.354;2023-02-26T03:52:05;-0.64;71.89
76102;SHT30;64830;46.910;6.354;2023-02-26T03:54:34;-0.68;71.86
76102;SHT30;64830;46.910;6.354;2023-02-26T03:57:01;-0.72;72.20
76102;SHT30;64830;46.910;6.354;2023-02-26T03:59:27;-0.74;71.94
76102;SHT30;64830;46.910;6.354;2023-02-26T04:02:01;-0.74;71.84
76102;SHT30;64830;46.910;6.354;2023-02-26T04:04:34;-0.75;71.81
76102;SHT30;64830;46.910;6.354;2023-02-26T04:07:02;-0.82;71.45
76102;SHT30;64830;46.910;6.354;2023-02-26T04:09:27;-0.84;71.77
76102;SHT30;64830;46.910;6.354;2023-02-26T04:11:55;-0.85;71.58
76102;SHT30;64830;46.910;6.354;2023-02-26T04:14:21;-0.86;71.50
76102;SHT30;64830;46.910;6.354;2023-02-26T04:16:46;-0.91;71.56
76102;SHT30;64830;46.910;6.354;2023-02-26T04:19:12;-0.95;71.26
76102;SHT30;64830;46.910;6.354;2023-02-26T04:21:38;-0.97;71.24
76102;SHT30;64830;46.910;6.354;2023-02-26T04:24:04;-1.03;71.49
76102;SHT30;64830;46.910;6.354;2023-02-26T04:26:29;-1.05;71.21
76102;SHT30;64830;46.910;6.354;2023-02-26T04:28:54;-1.10;71.19
76102;SHT30;64830;46.910;6.354;2023-02-26T04:31:20;-1.17;71.41
76102;SHT30;64830;46.910;6.354;2023-02-26T04:33:45;-1.17;71.32
76102;SHT30;64830;46.910;6.354;2023-02-26T04:36:11;-1.26;71.26
76102;SHT30;64830;46.910;6.354;2023-02-26T04:38:36;-1.31;71.40
76102;SHT30;64830;46.910;6.354;2023-02-26T04:41:02;-1.36;71.60
76102;SHT30;64830;46.910;6.354;2023-02-26T04:43:27;-1.39;71.57
76102;SHT30;64830;46.910;6.354;2023-02-26T04:45:53;-1.40;71.65
76102;SHT30;64830;46.910;6.354;2023-02-26T04:48:18;-1.44;71.65
76102;SHT30;64830;46.910;6.354;2023-02-26T04:50:45;-1.46;71.62
76102;SHT30;64830;46.910;6.354;2023-02-26T04:53:11;-1.58;71.47
76102;SHT30;64830;46.910;6.354;2023-02-26T04:55:37;-1.65;71.65
76102;SHT30;64830;46.910;6.354;2023-02-26T04:58:04;-1.71;71.85
76102;SHT30;64830;46.910;6.354;2023-02-26T05:00:29;-1.74;71.95
76102;SHT30;64830;46.910;6.354;2023-02-26T05:02:54;-1.75;71.77
76102;SHT30;64830;46.910;6.354;2023-02-26T05:05:20;-1.76;71.98
76102;SHT30;64830;46.910;6.354;2023-02-26T05:07:45;-1.76;71.78
76102;SHT30;64830;46.910;6.354;2023-02-26T05:10:11;-1.75;71.97
76102;SHT30;64830;46.910;6.354;2023-02-26T05:12:37;-1.72;71.71
76102;SHT30;64830;46.910;6.354;2023-02-26T05:15:03;-1.69;71.49
76102;SHT30;64830;46.910;6.354;2023-02-26T05:17:29;-1.72;71.61
76102;SHT30;64830;46.910;6.354;2023-02-26T05:19:54;-1.69;71.10
76102;SHT30;64830;46.910;6.354;2023-02-26T05:22:20;-1.69;71.29
76102;SHT30;64830;46.910;6.354;2023-02-26T05:24:45;-1.74;71.11
76102;SHT30;64830;46.910;6.354;2023-02-26T05:27:10;-1.72;71.14
76102;SHT30;64830;46.910;6.354;2023-02-26T05:29:36;-1.78;70.99
76102;SHT30;64830;46.910;6.354;2023-02-26T05:32:02;-1.83;70.70
76102;SHT30;64830;46.910;6.354;2023-02-26T05:34:28;-1.93;70.79
76102;SHT30;64830;46.910;6.354;2023-02-26T05:36:53;-1.99;70.95
76102;SHT30;64830;46.910;6.354;2023-02-26T05:39:19;-2.04;70.60
76102;SHT30;64830;46.910;6.354;2023-02-26T05:41:44;-2.04;70.77
76102;SHT30;64830;46.910;6.354;2023-02-26T05:44:10;-2.04;70.73
76102;SHT30;64830;46.910;6.354;2023-02-26T05:46:36;-2.09;70.20
76102;SHT30;64830;46.910;6.354;2023-02-26T05:49:01;-2.14;70.07
76102;SHT30;64830;46.910;6.354;2023-02-26T05:51:27;-2.20;70.12
76102;SHT30;64830;46.910;6.354;2023-02-26T05:53:53;-2.24;70.08
76102;SHT30;64830;46.910;6.354;2023-02-26T05:56:18;-2.26;70.03
76102;SHT30;64830;46.910;6.354;2023-02-26T05:58:44;-2.33;69.70
76102;SHT30;64830;46.910;6.354;2023-02-26T06:01:09;-2.36;69.78
76102;SHT30;64830;46.910;6.354;2023-02-26T06:03:35;-2.37;69.82
76102;SHT30;64830;46.910;6.354;2023-02-26T06:06:00;-2.38;69.64
76102;SHT30;64830;46.910;6.354;2023-02-26T06:08:25;-2.40;69.94
76102;SHT30;64830;46.910;6.354;2023-02-26T06:10:51;-2.37;69.92
76102;SHT30;64830;46.910;6.354;2023-02-26T06:13:16;-2.36;69.53
76102;SHT30;64830;46.910;6.354;2023-02-26T06:15:42;-2.37;69.59
76102;SHT30;64830;46.910;6.354;2023-02-26T06:18:07;-2.37;69.02
76102;SHT30;64830;46.910;6.354;2023-02-26T06:20:33;-2.36;68.92
76102;SHT30;64830;46.910;6.354;2023-02-26T06:22:59;-2.36;69.35
76102;SHT30;64830;46.910;6.354;2023-02-26T06:25:24;-2.36;68.55
76102;SHT30;64830;46.910;6.354;2023-02-26T06:27:50;-2.36;69.10
76102;SHT30;64830;46.910;6.354;2023-02-26T06:30:15;-2.36;68.97
76102;SHT30;64830;46.910;6.354;2023-02-26T06:32:42;-2.36;68.79
76102;SHT30;64830;46.910;6.354;2023-02-26T06:35:08;-2.37;68.77
76102;SHT30;64830;46.910;6.354;2023-02-26T06:37:34;-2.34;68.61
76102;SHT30;64830;46.910;6.354;2023-02-26T06:39:59;-2.34;68.76
76102;SHT30;64830;46.910;6.354;2023-02-26T06:42:24;-2.37;69.02
76102;SHT30;64830;46.910;6.354;2023-02-26T06:44:50;-2.34;68.73
76102;SHT30;64830;46.910;6.354;2023-02-26T06:47:15;-2.30;68.89
76102;SHT30;64830;46.910;6.354;2023-02-26T06:49:41;-2.30;68.90
76102;SHT30;64830;46.910;6.354;2023-02-26T06:52:06;-2.27;68.78
76102;SHT30;64830;46.910;6.354;2023-02-26T06:54:31;-2.30;68.84
76102;SHT30;64830;46.910;6.354;2023-02-26T06:56:57;-2.31;69.21
76102;SHT30;64830;46.910;6.354;2023-02-26T06:59:23;-2.29;69.28
76102;SHT30;64830;46.910;6.354;2023-02-26T07:01:49;-2.31;68.84
76102;SHT30;64830;46.910;6.354;2023-02-26T07:04:14;-2.31;68.23
76102;SHT30;64830;46.910;6.354;2023-02-26T07:06:40;-2.36;67.94
76102;SHT30;64830;46.910;6.354;2023-02-26T07:09:05;-2.40;68.11
76102;SHT30;64830;46.910;6.354;2023-02-26T07:11:31;-2.38;68.25
76102;SHT30;64830;46.910;6.354;2023-02-26T07:13:56;-2.37;68.02
76102;SHT30;64830;46.910;6.354;2023-02-26T07:16:21;-2.38;67.72
76102;SHT30;64830;46.910;6.354;2023-02-26T07:18:47;-2.38;68.19
76102;SHT30;64830;46.910;6.354;2023-02-26T07:21:12;-2.41;67.68
76102;SHT30;64830;46.910;6.354;2023-02-26T07:23:37;-2.45;67.86
76102;SHT30;64830;46.910;6.354;2023-02-26T07:26:03;-2.42;67.72
76102;SHT30;64830;46.910;6.354;2023-02-26T07:28:28;-2.38;68.18
76102;SHT30;64830;46.910;6.354;2023-02-26T07:30:54;-2.33;67.46
76102;SHT30;64830;46.910;6.354;2023-02-26T07:33:20;-2.31;67.10
76102;SHT30;64830;46.910;6.354;2023-02-26T07:35:46;-2.33;67.29
76102;SHT30;64830;46.910;6.354;2023-02-26T07:38:12;-2.30;67.24
76102;SHT30;64830;46.910;6.354;2023-02-26T07:40:37;-2.26;67.17
76102;SHT30;64830;46.910;6.354;2023-02-26T07:43:03;-2.24;67.63
76102;SHT30;64830;46.910;6.354;2023-02-26T07:45:28;-2.23;67.22
76102;SHT30;64830;46.910;6.354;2023-02-26T07:47:53;-2.23;66.84
76102;SHT30;64830;46.910;6.354;2023-02-26T07:50:19;-2.19;66.83
76102;SHT30;64830;46.910;6.354;2023-02-26T07:52:45;-2.13;67.19
76102;SHT30;64830;46.910;6.354;2023-02-26T07:55:11;-2.19;67.28
76102;SHT30;64830;46.910;6.354;2023-02-26T07:57:37;-2.24;67.19
76102;SHT30;64830;46.910;6.354;2023-02-26T08:00:04;-2.30;67.12
76102;SHT30;64830;46.910;6.354;2023-02-26T08:02:30;-2.37;67.02
76102;SHT30;64830;46.910;6.354;2023-02-26T08:04:55;-2.33;68.06
76102;SHT30;64830;46.910;6.354;2023-02-26T08:07:21;-2.31;67.87
76102;SHT30;64830;46.910;6.354;2023-02-26T08:09:47;-2.24;67.50
76102;SHT30;64830;46.910;6.354;2023-02-26T08:12:12;-2.15;67.54
76102;SHT30;64830;46.910;6.354;2023-02-26T08:14:37;-2.15;67.39
76102;SHT30;64830;46.910;6.354;2023-02-26T08:17:06;-2.00;67.53
76102;SHT30;64830;46.910;6.354;2023-02-26T08:19:31;-1.87;67.17
76102;SHT30;64830;46.910;6.354;2023-02-26T08:21:57;-1.92;66.45
76102;SHT30;64830;46.910;6.354;2023-02-26T08:24:22;-1.82;66.74
76102;SHT30;64830;46.910;6.354;2023-02-26T08:26:48;-1.79;66.54
76102;SHT30;64830;46.910;6.354;2023-02-26T08:29:13;-1.82;66.26
76102;SHT30;64830;46.910;6.354;2023-02-26T08:31:39;-1.89;66.41
76102;SHT30;64830;46.910;6.354;2023-02-26T08:34:04;-2.02;65.74
76102;SHT30;64830;46.910;6.354;2023-02-26T08:36:30;-2.11;65.92
76102;SHT30;64830;46.910;6.354;2023-02-26T08:38:56;-2.14;65.77
76102;SHT30;64830;46.910;6.354;2023-02-26T08:41:22;-2.17;65.85
76102;SHT30;64830;46.910;6.354;2023-02-26T08:43:48;-2.24;64.83
76102;SHT30;64830;46.910;6.354;2023-02-26T08:46:13;-2.34;65.29
76102;SHT30;64830;46.910;6.354;2023-02-26T08:48:39;-2.38;65.26
76102;SHT30;64830;46.910;6.354;2023-02-26T08:51:04;-2.37;65.01
76102;SHT30;64830;46.910;6.354;2023-02-26T08:53:30;-2.44;65.21
76102;SHT30;64830;46.910;6.354;2023-02-26T08:55:55;-2.45;65.00
76102;SHT30;64830;46.910;6.354;2023-02-26T08:58:21;-2.52;64.64
76102;SHT30;64830;46.910;6.354;2023-02-26T09:00:46;-2.49;65.00
76102;SHT30;64830;46.910;6.354;2023-02-26T09:03:12;-2.47;64.44
76102;SHT30;64830;46.910;6.354;2023-02-26T09:05:38;-2.42;64.46
76102;SHT30;64830;46.910;6.354;2023-02-26T09:08:05;-2.30;64.61
76102;SHT30;64830;46.910;6.354;2023-02-26T09:10:30;-2.17;64.23
76102;SHT30;64830;46.910;6.354;2023-02-26T09:12:56;-2.10;63.47
76102;SHT30;64830;46.910;6.354;2023-02-26T09:15:21;-2.04;63.56
76102;SHT30;64830;46.910;6.354;2023-02-26T09:17:47;-1.99;62.71
76102;SHT30;64830;46.910;6.354;2023-02-26T09:20:13;-1.97;62.89
76102;SHT30;64830;46.910;6.354;2023-02-26T09:22:38;-1.97;62.64
76102;SHT30;64830;46.910;6.354;2023-02-26T09:25:05;-1.93;62.66
76102;SHT30;64830;46.910;6.354;2023-02-26T09:27:30;-1.87;62.57
76102;SHT30;64830;46.910;6.354;2023-02-26T09:29:56;-1.92;62.23
76102;SHT30;64830;46.910;6.354;2023-02-26T09:32:21;-1.87;62.56
76102;SHT30;64830;46.910;6.354;2023-02-26T09:34:47;-1.85;62.51
76102;SHT30;64830;46.910;6.354;2023-02-26T09:37:12;-1.87;62.34
76102;SHT30;64830;46.910;6.354;2023-02-26T09:39:38;-1.87;62.25
76102;SHT30;64830;46.910;6.354;2023-02-26T09:44:37;-1.92;62.21
76102;SHT30;64830;46.910;6.354;2023-02-26T09:54:56;-1.89;61.94
76102;SHT30;64830;46.910;6.354;2023-02-26T09:57:29;-1.86;61.73
76102;SHT30;64830;46.910;6.354;2023-02-26T09:59:55;-1.89;62.11
76102;SHT30;64830;46.910;6.354;2023-02-26T10:02:35;-1.89;61.60
76102;SHT30;64830;46.910;6.354;2023-02-26T10:05:18;-1.82;61.77
76102;SHT30;64830;46.910;6.354;2023-02-26T10:08:01;-1.64;61.68
76102;SHT30;64830;46.910;6.354;2023-02-26T10:11:18;-1.58;61.24
76102;SHT30;64830;46.910;6.354;2023-02-26T10:13:45;-1.52;60.69
76102;SHT30;64830;46.910;6.354;2023-02-26T10:16:21;-1.43;61.10
76102;SHT30;64830;46.910;6.354;2023-02-26T10:19:13;-1.23;61.41
76102;SHT30;64830;46.910;6.354;2023-02-26T10:21:51;-1.07;60.89
76102;SHT30;64830;46.910;6.354;2023-02-26T10:24:31;-0.99;60.70
76102;SHT30;64830;46.910;6.354;2023-02-26T10:27:25;-0.89;60.68
76102;SHT30;64830;46.910;6.354;2023-02-26T10:30:10;-0.84;60.53
76102;SHT30;64830;46.910;6.354;2023-02-26T10:32:49;-0.79;60.67
76102;SHT30;64830;46.910;6.354;2023-02-26T10:35:17;-0.85;60.15
76102;SHT30;64830;46.910;6.354;2023-02-26T10:37:55;-0.85;60.12
76102;SHT30;64830;46.910;6.354;2023-02-26T10:40:43;-0.88;59.04
76102;SHT30;64830;46.910;6.354;2023-02-26T10:43:41;-1.00;59.79
76102;SHT30;64830;46.910;6.354;2023-02-26T10:46:18;-0.97;60.52
76102;SHT30;64830;46.910;6.354;2023-02-26T10:51:35;-0.93;59.60
76102;SHT30;64830;46.910;6.354;2023-02-26T10:54:17;-0.88;60.80
76102;SHT30;64830;46.910;6.354;2023-02-26T10:56:44;-0.82;59.80
76102;SHT30;64830;46.910;6.354;2023-02-26T10:59:09;-0.89;60.25
76102;SHT30;64830;46.910;6.354;2023-02-26T11:01:35;-0.93;59.98
76102;SHT30;64830;46.910;6.354;2023-02-26T11:04:06;-0.92;59.57
76102;SHT30;64830;46.910;6.354;2023-02-26T11:06:48;-0.95;58.82
76102;SHT30;64830;46.910;6.354;2023-02-26T11:09:26;-0.88;59.88
76102;SHT30;64830;46.910;6.354;2023-02-26T11:14:31;-1.03;58.66
76102;SHT30;64830;46.910;6.354;2023-02-26T11:17:00;-1.06;59.21
76102;SHT30;64830;46.910;6.354;2023-02-26T11:19:54;-0.95;59.38
76102;SHT30;64830;46.910;6.354;2023-02-26T11:22:21;-0.78;59.13
76102;SHT30;64830;46.910;6.354;2023-02-26T11:24:50;-0.65;59.39
76102;SHT30;64830;46.910;6.354;2023-02-26T11:27:23;-0.45;59.57
76102;SHT30;64830;46.910;6.354;2023-02-26T11:29:57;-0.34;58.64
76102;SHT30;64830;46.910;6.354;2023-02-26T11:32:29;-0.22;58.88
76102;SHT30;64830;46.910;6.354;2023-02-26T11:34:55;-0.13;58.95
76102;SHT30;64830;46.910;6.354;2023-02-26T11:37:29;-0.17;57.38
76102;SHT30;64830;46.910;6.354;2023-02-26T11:39:58;-0.29;57.34
76102;SHT30;64830;46.910;6.354;2023-02-26T11:42:25;-0.32;57.70
76102;SHT30;64830;46.910;6.354;2023-02-26T11:44:51;-0.40;57.37
76102;SHT30;64830;46.910;6.354;2023-02-26T11:47:24;-0.58;59.08
76102;SHT30;64830;46.910;6.354;2023-02-26T11:49:53;-0.72;60.30
76102;SHT30;64830;46.910;6.354;2023-02-26T11:52:53;-0.88;61.79
76102;SHT30;64830;46.910;6.354;2023-02-26T11:55:29;-0.86;62.56
76102;SHT30;64830;46.910;6.354;2023-02-26T11:57:56;-0.91;62.85
76102;SHT30;64830;46.910;6.354;2023-02-26T12:00:31;-0.82;63.05
76102;SHT30;64830;46.910;6.354;2023-02-26T12:03:05;-0.69;63.51
76102;SHT30;64830;46.910;6.354;2023-02-26T12:05:32;-0.64;66.09
76102;SHT30;64830;46.910;6.354;2023-02-26T12:07:58;-0.77;70.30
76102;SHT30;64830;46.910;6.354;2023-02-26T12:10:42;-0.95;69.42
76102;SHT30;64830;46.910;6.354;2023-02-26T12:13:51;-1.16;67.93
76102;SHT30;64830;46.910;6.354;2023-02-26T12:24:56;-1.05;67.56
76102;SHT30;64830;46.910;6.354;2023-02-26T12:42:05;-0.67;62.73
76102;SHT30;64830;46.910;6.354;2023-02-26T12:44:41;-0.75;63.23
76102;SHT30;64830;46.910;6.354;2023-02-26T12:50:11;-0.86;62.86
76102;SHT30;64830;46.910;6.354;2023-02-26T13:09:24;-1.30;64.19
76102;SHT30;64830;46.910;6.354;2023-02-26T13:19:49;-1.31;63.84
76102;SHT30;64830;46.910;6.354;2023-02-26T13:22:38;-1.31;64.08
76102;SHT30;64830;46.910;6.354;2023-02-26T13:27:43;-1.43;64.23
76102;SHT30;64830;46.910;6.354;2023-02-26T13:32:54;-1.41;63.90
76102;SHT30;64830;46.910;6.354;2023-02-26T13:35:40;-1.30;63.45
76102;SHT30;64830;46.910;6.354;2023-02-26T13:41:18;-1.02;63.06
76102;SHT30;64830;46.910;6.354;2023-02-26T13:46:41;-0.77;61.89
76102;SHT30;64830;46.910;6.354;2023-02-26T13:52:31;-0.82;63.72
76102;SHT30;64830;46.910;6.354;2023-02-26T13:54:57;-0.88;64.00
76102;SHT30;64830;46.910;6.354;2023-02-26T13:57:55;-0.95;63.76
76102;SHT30;64830;46.910;6.354;2023-02-26T14:00:32;-1.09;64.17
76102;SHT30;64830;46.910;6.354;2023-02-26T14:03:11;-1.00;64.37
76102;SHT30;64830;46.910;6.354;2023-02-26T14:11:02;-1.21;64.67
76102;SHT30;64830;46.910;6.354;2023-02-26T14:14:10;-1.30;64.79
76102;SHT30;64830;46.910;6.354;2023-02-26T14:16:39;-1.30;64.33
76102;SHT30;64830;46.910;6.354;2023-02-26T14:19:20;-1.31;64.59
76102;SHT30;64830;46.910;6.354;2023-02-26T14:24:24;-1.27;64.61
76102;SHT30;64830;46.910;6.354;2023-02-26T14:30:00;-1.27;64.27
76102;SHT30;64830;46.910;6.354;2023-02-26T14:32:33;-1.33;64.67
76102;SHT30;64830;46.910;6.354;2023-02-26T14:35:05;-1.34;64.58
76102;SHT30;64830;46.910;6.354;2023-02-26T14:37:34;-1.40;64.24
76102;SHT30;64830;46.910;6.354;2023-02-26T14:40:19;-1.44;64.61
76102;SHT30;64830;46.910;6.354;2023-02-26T14:42:47;-1.47;64.66
76102;SHT30;64830;46.910;6.354;2023-02-26T14:45:30;-1.52;64.90
76102;SHT30;64830;46.910;6.354;2023-02-26T14:48:00;-1.57;65.26
76102;SHT30;64830;46.910;6.354;2023-02-26T14:50:49;-1.61;65.42
76102;SHT30;64830;46.910;6.354;2023-02-26T14:56:31;-1.52;65.80
76102;SHT30;64830;46.910;6.354;2023-02-26T15:07:02;-1.16;64.65
76102;SHT30;64830;46.910;6.354;2023-02-26T15:14:58;-1.29;65.09
76102;SHT30;64830;46.910;6.354;2023-02-26T15:20:31;-1.30;65.37
76102;SHT30;64830;46.910;6.354;2023-02-26T15:25:40;-1.17;63.42
76102;SHT30;64830;46.910;6.354;2023-02-26T15:28:14;-1.13;62.21
76102;SHT30;64830;46.910;6.354;2023-02-26T15:30:45;-1.02;61.10
76102;SHT30;64830;46.910;6.354;2023-02-26T15:33:12;-0.88;60.36
76102;SHT30;64830;46.910;6.354;2023-02-26T15:35:38;-0.77;60.10
76102;SHT30;64830;46.910;6.354;2023-02-26T15:38:03;-0.65;59.46
76102;SHT30;64830;46.910;6.354;2023-02-26T15:40:34;-0.53;59.48
76102;SHT30;64830;46.910;6.354;2023-02-26T15:43:02;-0.53;58.88
76102;SHT30;64830;46.910;6.354;2023-02-26T15:45:37;-0.61;60.37
76102;SHT30;64830;46.910;6.354;2023-02-26T15:48:07;-0.71;59.88
76102;SHT30;64830;46.910;6.354;2023-02-26T15:50:39;-0.82;60.06
76102;SHT30;64830;46.910;6.354;2023-02-26T15:53:09;-0.89;60.50
76102;SHT30;64830;46.910;6.354;2023-02-26T15:55:42;-0.89;59.50
76102;SHT30;64830;46.910;6.354;2023-02-26T15:58:21;-0.79;59.97
76102;SHT30;64830;46.910;6.354;2023-02-26T16:00:52;-0.71;61.13
76102;SHT30;64830;46.910;6.354;2023-02-26T16:03:25;-0.65;61.19
76102;SHT30;64830;46.910;6.354;2023-02-26T16:05:53;-0.71;60.70
76102;SHT30;64830;46.910;6.354;2023-02-26T16:08:19;-0.78;60.82
76102;SHT30;64830;46.910;6.354;2023-02-26T16:10:44;-0.78;61.23
76102;SHT30;64830;46.910;6.354;2023-02-26T16:13:14;-0.86;61.81
76102;SHT30;64830;46.910;6.354;2023-02-26T16:15:42;-0.97;62.97
76102;SHT30;64830;46.910;6.354;2023-02-26T16:18:13;-1.14;64.88
76102;SHT30;64830;46.910;6.354;2023-02-26T16:20:43;-1.31;67.38
76102;SHT30;64830;46.910;6.354;2023-02-26T16:23:16;-1.43;66.54
76102;SHT30;64830;46.910;6.354;2023-02-26T16:25:54;-1.47;66.59
76102;SHT30;64830;46.910;6.354;2023-02-26T16:28:21;-1.43;65.96
76102;SHT30;64830;46.910;6.354;2023-02-26T16:30:51;-1.44;66.67
76102;SHT30;64830;46.910;6.354;2023-02-26T16:33:17;-1.41;66.23
76102;SHT30;64830;46.910;6.354;2023-02-26T16:35:48;-1.41;65.37
76102;SHT30;64830;46.910;6.354;2023-02-26T16:38:23;-1.37;65.30
76102;SHT30;64830;46.910;6.354;2023-02-26T16:41:03;-1.40;65.29
76102;SHT30;64830;46.910;6.354;2023-02-26T16:43:33;-1.40;65.63
76102;SHT30;64830;46.910;6.354;2023-02-26T16:46:03;-1.40;66.24
76102;SHT30;64830;46.910;6.354;2023-02-26T16:48:34;-1.46;66.46
76102;SHT30;64830;46.910;6.354;2023-02-26T16:53:59;-1.58;69.34
76102;SHT30;64830;46.910;6.354;2023-02-26T16:56:33;-1.67;70.68
76102;SHT30;64830;46.910;6.354;2023-02-26T17:01:35;-1.86;70.90
76102;SHT30;64830;46.910;6.354;2023-02-26T17:04:02;-1.89;71.07
76102;SHT30;64830;46.910;6.354;2023-02-26T17:06:29;-1.89;71.18
76102;SHT30;64830;46.910;6.354;2023-02-26T17:09:04;-1.89;71.02
76102;SHT30;64830;46.910;6.354;2023-02-26T17:11:38;-1.90;70.83
76102;SHT30;64830;46.910;6.354;2023-02-26T17:16:44;-1.89;70.14
76102;SHT30;64830;46.910;6.354;2023-02-26T17:19:10;-1.95;71.18
76102;SHT30;64830;46.910;6.354;2023-02-26T17:21:41;-1.93;70.18
76102;SHT30;64830;46.910;6.354;2023-02-26T17:24:13;-1.97;69.72
76102;SHT30;64830;46.910;6.354;2023-02-26T17:26:39;-1.97;70.81
76102;SHT30;64830;46.910;6.354;2023-02-26T17:29:05;-2.02;70.04
76102;SHT30;64830;46.910;6.354;2023-02-26T17:31:30;-2.00;69.46
76102;SHT30;64830;46.910;6.354;2023-02-26T17:33:55;-2.00;68.93
76102;SHT30;64830;46.910;6.354;2023-02-26T17:36:21;-2.02;77.47
76102;SHT30;64830;46.910;6.354;2023-02-26T17:38:46;-2.06;71.39
76102;SHT30;64830;46.910;6.354;2023-02-26T17:41:16;-2.07;74.09
76102;SHT30;64830;46.910;6.354;2023-02-26T17:43:42;-2.09;74.58
76102;SHT30;64830;46.910;6.354;2023-02-26T17:46:09;-2.09;71.16
76102;SHT30;64830;46.910;6.354;2023-02-26T17:48:36;-2.04;70.47
76102;SHT30;64830;46.910;6.354;2023-02-26T17:51:02;-2.06;70.01
76102;SHT30;64830;46.910;6.354;2023-02-26T17:53:28;-2.02;69.37
76102;SHT30;64830;46.910;6.354;2023-02-26T17:56:15;-2.00;68.53
76102;SHT30;64830;46.910;6.354;2023-02-26T17:58:41;-2.00;67.86
76102;SHT30;64830;46.910;6.354;2023-02-26T18:01:08;-1.95;68.12
76102;SHT30;64830;46.910;6.354;2023-02-26T18:03:34;-1.92;67.67
76102;SHT30;64830;46.910;6.354;2023-02-26T18:05:59;-1.90;67.54
76102;SHT30;64830;46.910;6.354;2023-02-26T18:08:28;-1.87;67.34
76102;SHT30;64830;46.910;6.354;2023-02-26T18:10:55;-1.85;66.96
76102;SHT30;64830;46.910;6.354;2023-02-26T18:13:20;-1.83;67.47
76102;SHT30;64830;46.910;6.354;2023-02-26T18:15:46;-1.85;66.50
76102;SHT30;64830;46.910;6.354;2023-02-26T18:18:13;-1.85;67.73
76102;SHT30;64830;46.910;6.354;2023-02-26T18:20:39;-1.85;66.82
76102;SHT30;64830;46.910;6.354;2023-02-26T18:23:05;-1.82;67.00
76102;SHT30;64830;46.910;6.354;2023-02-26T18:25:36;-1.81;66.79
76102;SHT30;64830;46.910;6.354;2023-02-26T18:28:02;-1.81;66.75
76102;SHT30;64830;46.910;6.354;2023-02-26T18:30:32;-1.82;66.75
76102;SHT30;64830;46.910;6.354;2023-02-26T18:32:57;-1.82;66.31